sensor_id;sensor_type;location;lat;lon;timestamp;P1;durP1;ratioP1;P2;durP2;ratioP2
51943;SDS011;37969;53.132;6.370;2024-03-06T00:00:58;23.73;;;12.70;;
51943;SDS011;37969;53.132;6.370;2024-03-06T00:03:27;21.88;;;12.27;;
51943;SDS011;37969;53.132;6.370;2024-03-06T00:05:54;22.70;;;12.55;;
51943;SDS011;37969;53.132;6.370;2024-03-06T00:08:21;20.40;;;13.07;;
51943;SDS011;37969;53.132;6.370;2024-03-06T00:10:50;18.83;;;12.73;;
51943;SDS011;37969;53.132;6.370;2024-03-06T00:13:19;24.25;;;13.00;;
51943;SDS011;37969;53.132;6.370;2024-03-06T00:15:47;20.42;;;12.23;;
51943;SDS011;37969;53.132;6.370;2024-03-06T00:18:19;21.15;;;13.00;;
51943;SDS011;37969;53.132;6.370;2024-03-06T00:20:46;21.55;;;12.05;;
51943;SDS011;37969;53.132;6.370;2024-03-06T00:23:14;22.33;;;12.35;;
51943;SDS011;37969;53.132;6.370;2024-03-06T00:25:41;27.08;;;14.07;;
51943;SDS011;37969;53.132;6.370;2024-03-06T00:28:10;21.48;;;12.88;;
51943;SDS011;37969;53.132;6.370;2024-03-06T00:30:39;18.52;;;12.18;;
51943;SDS011;37969;53.132;6.370;2024-03-06T00:33:05;24.65;;;12.35;;
51943;SDS011;37969;53.132;6.370;2024-03-06T00:35:39;22.13;;;12.25;;
51943;SDS011;37969;53.132;6.370;2024-03-06T00:38:06;20.42;;;12.57;;
51943;SDS011;37969;53.132;6.370;2024-03-06T00:40:32;21.35;;;11.77;;
51943;SDS011;37969;53.132;6.370;2024-03-06T00:43:02;19.90;;;12.90;;
51943;SDS011;37969;53.132;6.370;2024-03-06T00:45:29;22.17;;;12.63;;
51943;SDS011;37969;53.132;6.370;2024-03-06T00:47:55;20.67;;;11.70;;
51943;SDS011;37969;53.132;6.370;2024-03-06T00:50:22;19.85;;;11.90;;
51943;SDS011;37969;53.132;6.370;2024-03-06T00:52:51;21.50;;;11.85;;
51943;SDS011;37969;53.132;6.370;2024-03-06T00:55:18;22.08;;;11.77;;
51943;SDS011;37969;53.132;6.370;2024-03-06T00:57:49;22.42;;;11.65;;
51943;SDS011;37969;53.132;6.370;2024-03-06T01:00:19;19.05;;;12.45;;
51943;SDS011;37969;53.132;6.370;2024-03-06T01:05:15;21.08;;;11.77;;
51943;SDS011;37969;53.132;6.370;2024-03-06T01:07:42;22.08;;;12.50;;
51943;SDS011;37969;53.132;6.370;2024-03-06T01:10:11;18.30;;;12.30;;
51943;SDS011;37969;53.132;6.370;2024-03-06T01:12:38;20.58;;;12.45;;
51943;SDS011;37969;53.132;6.370;2024-03-06T01:15:05;22.77;;;11.95;;
51943;SDS011;37969;53.132;6.370;2024-03-06T01:17:40;20.52;;;12.60;;
51943;SDS011;37969;53.132;6.370;2024-03-06T01:20:11;18.02;;;11.98;;
51943;SDS011;37969;53.132;6.370;2024-03-06T01:22:43;22.75;;;11.93;;
51943;SDS011;37969;53.132;6.370;2024-03-06T01:25:11;18.90;;;11.77;;
51943;SDS011;37969;53.132;6.370;2024-03-06T01:27:39;20.17;;;12.13;;
51943;SDS011;37969;53.132;6.370;2024-03-06T01:30:09;21.20;;;12.05;;
51943;SDS011;37969;53.132;6.370;2024-03-06T01:32:40;19.95;;;11.50;;
51943;SDS011;37969;53.132;6.370;2024-03-06T01:35:09;20.00;;;12.43;;
51943;SDS011;37969;53.132;6.370;2024-03-06T01:37:39;21.65;;;12.23;;
51943;SDS011;37969;53.132;6.370;2024-03-06T01:40:09;25.52;;;13.63;;
51943;SDS011;37969;53.132;6.370;2024-03-06T01:42:46;25.52;;;13.18;;
51943;SDS011;37969;53.132;6.370;2024-03-06T01:45:14;20.45;;;12.98;;
51943;SDS011;37969;53.132;6.370;2024-03-06T01:47:40;23.10;;;12.68;;
51943;SDS011;37969;53.132;6.370;2024-03-06T01:50:09;19.52;;;12.85;;
51943;SDS011;37969;53.132;6.370;2024-03-06T01:52:39;24.20;;;12.05;;
51943;SDS011;37969;53.132;6.370;2024-03-06T01:55:08;25.13;;;12.43;;
51943;SDS011;37969;53.132;6.370;2024-03-06T01:57:37;22.23;;;12.57;;
51943;SDS011;37969;53.132;6.370;2024-03-06T02:00:05;18.60;;;12.32;;
51943;SDS011;37969;53.132;6.370;2024-03-06T02:02:37;23.55;;;12.98;;
51943;SDS011;37969;53.132;6.370;2024-03-06T02:05:05;22.77;;;12.48;;
51943;SDS011;37969;53.132;6.370;2024-03-06T02:07:36;21.90;;;11.85;;
51943;SDS011;37969;53.132;6.370;2024-03-06T02:10:04;22.88;;;12.80;;
51943;SDS011;37969;53.132;6.370;2024-03-06T02:12:32;22.00;;;12.77;;
51943;SDS011;37969;53.132;6.370;2024-03-06T02:14:58;20.23;;;12.13;;
51943;SDS011;37969;53.132;6.370;2024-03-06T02:17:24;19.08;;;11.50;;
51943;SDS011;37969;53.132;6.370;2024-03-06T02:19:50;17.60;;;12.20;;
51943;SDS011;37969;53.132;6.370;2024-03-06T02:22:19;24.20;;;12.37;;
51943;SDS011;37969;53.132;6.370;2024-03-06T02:24:48;21.38;;;12.60;;
51943;SDS011;37969;53.132;6.370;2024-03-06T02:27:15;24.27;;;12.95;;
51943;SDS011;37969;53.132;6.370;2024-03-06T02:29:45;20.83;;;12.35;;
51943;SDS011;37969;53.132;6.370;2024-03-06T02:32:14;25.25;;;12.65;;
51943;SDS011;37969;53.132;6.370;2024-03-06T02:34:43;19.63;;;13.20;;
51943;SDS011;37969;53.132;6.370;2024-03-06T02:37:09;25.27;;;13.70;;
51943;SDS011;37969;53.132;6.370;2024-03-06T02:39:38;21.05;;;12.60;;
51943;SDS011;37969;53.132;6.370;2024-03-06T02:42:04;20.50;;;11.93;;
51943;SDS011;37969;53.132;6.370;2024-03-06T02:44:32;21.02;;;12.60;;
51943;SDS011;37969;53.132;6.370;2024-03-06T02:47:02;18.88;;;12.43;;
51943;SDS011;37969;53.132;6.370;2024-03-06T02:49:33;23.75;;;11.73;;
51943;SDS011;37969;53.132;6.370;2024-03-06T02:52:05;23.80;;;13.32;;
51943;SDS011;37969;53.132;6.370;2024-03-06T02:54:37;21.13;;;12.52;;
51943;SDS011;37969;53.132;6.370;2024-03-06T02:57:03;26.90;;;13.63;;
51943;SDS011;37969;53.132;6.370;2024-03-06T02:59:29;20.52;;;12.27;;
51943;SDS011;37969;53.132;6.370;2024-03-06T03:01:58;22.27;;;13.03;;
51943;SDS011;37969;53.132;6.370;2024-03-06T03:04:26;18.90;;;12.50;;
51943;SDS011;37969;53.132;6.370;2024-03-06T03:06:52;20.58;;;12.43;;
51943;SDS011;37969;53.132;6.370;2024-03-06T03:09:19;18.92;;;12.85;;
51943;SDS011;37969;53.132;6.370;2024-03-06T03:11:46;24.75;;;13.43;;
51943;SDS011;37969;53.132;6.370;2024-03-06T03:14:15;22.02;;;13.20;;
51943;SDS011;37969;53.132;6.370;2024-03-06T03:16:42;18.20;;;13.15;;
51943;SDS011;37969;53.132;6.370;2024-03-06T03:19:13;22.30;;;14.18;;
51943;SDS011;37969;53.132;6.370;2024-03-06T03:21:44;18.40;;;13.53;;
51943;SDS011;37969;53.132;6.370;2024-03-06T03:24:13;25.83;;;13.07;;
51943;SDS011;37969;53.132;6.370;2024-03-06T03:26:40;23.20;;;13.25;;
51943;SDS011;37969;53.132;6.370;2024-03-06T03:29:07;22.98;;;13.75;;
51943;SDS011;37969;53.132;6.370;2024-03-06T03:31:36;22.42;;;13.98;;
51943;SDS011;37969;53.132;6.370;2024-03-06T03:34:05;21.58;;;13.73;;
51943;SDS011;37969;53.132;6.370;2024-03-06T03:36:40;23.33;;;14.02;;
51943;SDS011;37969;53.132;6.370;2024-03-06T03:39:10;23.98;;;14.25;;
51943;SDS011;37969;53.132;6.370;2024-03-06T03:41:45;22.40;;;13.85;;
51943;SDS011;37969;53.132;6.370;2024-03-06T03:44:12;22.48;;;13.77;;
51943;SDS011;37969;53.132;6.370;2024-03-06T03:46:40;20.45;;;13.85;;
51943;SDS011;37969;53.132;6.370;2024-03-06T03:49:08;19.80;;;13.27;;
51943;SDS011;37969;53.132;6.370;2024-03-06T03:51:35;21.65;;;14.25;;
51943;SDS011;37969;53.132;6.370;2024-03-06T03:54:02;24.75;;;13.90;;
51943;SDS011;37969;53.132;6.370;2024-03-06T03:56:30;22.63;;;15.10;;
51943;SDS011;37969;53.132;6.370;2024-03-06T03:58:59;21.98;;;13.77;;
51943;SDS011;37969;53.132;6.370;2024-03-06T04:01:26;22.77;;;14.25;;
51943;SDS011;37969;53.132;6.370;2024-03-06T04:03:52;23.55;;;14.02;;
51943;SDS011;37969;53.132;6.370;2024-03-06T04:06:21;24.08;;;14.32;;
51943;SDS011;37969;53.132;6.370;2024-03-06T04:08:48;20.65;;;13.25;;
51943;SDS011;37969;53.132;6.370;2024-03-06T04:11:19;26.23;;;13.77;;
51943;SDS011;37969;53.132;6.370;2024-03-06T04:13:48;21.60;;;13.67;;
51943;SDS011;37969;53.132;6.370;2024-03-06T04:16:20;23.75;;;13.98;;
51943;SDS011;37969;53.132;6.370;2024-03-06T04:18:47;22.20;;;13.32;;
51943;SDS011;37969;53.132;6.370;2024-03-06T04:21:13;21.00;;;13.63;;
51943;SDS011;37969;53.132;6.370;2024-03-06T04:23:43;21.88;;;14.57;;
51943;SDS011;37969;53.132;6.370;2024-03-06T04:26:11;23.33;;;14.05;;
51943;SDS011;37969;53.132;6.370;2024-03-06T04:28:38;29.38;;;13.85;;
51943;SDS011;37969;53.132;6.370;2024-03-06T04:31:05;21.52;;;13.80;;
51943;SDS011;37969;53.132;6.370;2024-03-06T04:33:34;21.90;;;14.10;;
51943;SDS011;37969;53.132;6.370;2024-03-06T04:36:03;24.27;;;14.07;;
51943;SDS011;37969;53.132;6.370;2024-03-06T04:38:32;23.85;;;14.93;;
51943;SDS011;37969;53.132;6.370;2024-03-06T04:40:59;23.48;;;14.55;;
51943;SDS011;37969;53.132;6.370;2024-03-06T04:43:33;23.25;;;14.52;;
51943;SDS011;37969;53.132;6.370;2024-03-06T04:46:05;27.17;;;14.48;;
51943;SDS011;37969;53.132;6.370;2024-03-06T04:48:37;20.58;;;14.55;;
51943;SDS011;37969;53.132;6.370;2024-03-06T04:51:09;22.27;;;14.45;;
51943;SDS011;37969;53.132;6.370;2024-03-06T04:53:37;26.77;;;14.75;;
51943;SDS011;37969;53.132;6.370;2024-03-06T04:56:07;22.65;;;14.23;;
51943;SDS011;37969;53.132;6.370;2024-03-06T04:58:33;19.52;;;13.60;;
51943;SDS011;37969;53.132;6.370;2024-03-06T05:00:59;26.63;;;14.75;;
51943;SDS011;37969;53.132;6.370;2024-03-06T05:03:28;23.03;;;14.33;;
51943;SDS011;37969;53.132;6.370;2024-03-06T05:05:58;24.02;;;14.57;;
51943;SDS011;37969;53.132;6.370;2024-03-06T05:08:28;24.77;;;14.90;;
51943;SDS011;37969;53.132;6.370;2024-03-06T05:11:00;27.27;;;15.27;;
51943;SDS011;37969;53.132;6.370;2024-03-06T05:13:29;24.50;;;14.90;;
51943;SDS011;37969;53.132;6.370;2024-03-06T05:15:58;21.42;;;14.93;;
51943;SDS011;37969;53.132;6.370;2024-03-06T05:18:24;22.25;;;14.23;;
51943;SDS011;37969;53.132;6.370;2024-03-06T05:20:51;23.35;;;14.18;;
51943;SDS011;37969;53.132;6.370;2024-03-06T05:23:22;24.75;;;15.43;;
51943;SDS011;37969;53.132;6.370;2024-03-06T05:25:49;25.50;;;14.82;;
51943;SDS011;37969;53.132;6.370;2024-03-06T05:28:19;21.90;;;15.27;;
51943;SDS011;37969;53.132;6.370;2024-03-06T05:30:45;24.60;;;15.35;;
51943;SDS011;37969;53.132;6.370;2024-03-06T05:33:12;26.02;;;15.10;;
51943;SDS011;37969;53.132;6.370;2024-03-06T05:35:39;23.90;;;15.25;;
51943;SDS011;37969;53.132;6.370;2024-03-06T05:38:07;26.10;;;15.52;;
51943;SDS011;37969;53.132;6.370;2024-03-06T05:40:35;25.92;;;17.30;;
51943;SDS011;37969;53.132;6.370;2024-03-06T05:43:04;27.73;;;16.23;;
51943;SDS011;37969;53.132;6.370;2024-03-06T05:45:33;27.17;;;17.08;;
51943;SDS011;37969;53.132;6.370;2024-03-06T05:50:30;32.10;;;17.02;;
51943;SDS011;37969;53.132;6.370;2024-03-06T05:53:01;28.40;;;17.88;;
51943;SDS011;37969;53.132;6.370;2024-03-06T05:55:27;30.83;;;19.15;;
51943;SDS011;37969;53.132;6.370;2024-03-06T05:57:54;26.55;;;17.77;;
51943;SDS011;37969;53.132;6.370;2024-03-06T06:00:21;35.47;;;19.00;;
51943;SDS011;37969;53.132;6.370;2024-03-06T06:02:50;29.35;;;18.15;;
51943;SDS011;37969;53.132;6.370;2024-03-06T06:05:16;33.22;;;18.35;;
51943;SDS011;37969;53.132;6.370;2024-03-06T06:07:45;31.27;;;18.60;;
51943;SDS011;37969;53.132;6.370;2024-03-06T06:10:11;33.20;;;18.48;;
51943;SDS011;37969;53.132;6.370;2024-03-06T06:12:40;29.83;;;18.90;;
51943;SDS011;37969;53.132;6.370;2024-03-06T06:15:09;33.72;;;19.58;;
51943;SDS011;37969;53.132;6.370;2024-03-06T06:17:38;32.22;;;18.50;;
51943;SDS011;37969;53.132;6.370;2024-03-06T06:22:41;26.80;;;17.50;;
51943;SDS011;37969;53.132;6.370;2024-03-06T06:25:08;29.20;;;17.85;;
51943;SDS011;37969;53.132;6.370;2024-03-06T06:27:35;25.80;;;17.92;;
51943;SDS011;37969;53.132;6.370;2024-03-06T06:30:03;27.95;;;18.33;;
51943;SDS011;37969;53.132;6.370;2024-03-06T06:32:50;27.17;;;16.85;;
51943;SDS011;37969;53.132;6.370;2024-03-06T06:35:19;32.45;;;18.48;;
51943;SDS011;37969;53.132;6.370;2024-03-06T06:37:50;30.52;;;18.05;;
51943;SDS011;37969;53.132;6.370;2024-03-06T06:40:23;27.52;;;18.20;;
51943;SDS011;37969;53.132;6.370;2024-03-06T06:45:21;28.70;;;17.45;;
51943;SDS011;37969;53.132;6.370;2024-03-06T06:47:51;30.10;;;18.50;;
51943;SDS011;37969;53.132;6.370;2024-03-06T06:50:20;28.77;;;17.70;;
51943;SDS011;37969;53.132;6.370;2024-03-06T06:52:51;27.98;;;17.52;;
51943;SDS011;37969;53.132;6.370;2024-03-06T06:55:24;32.30;;;17.63;;
51943;SDS011;37969;53.132;6.370;2024-03-06T06:57:55;27.75;;;18.77;;
51943;SDS011;37969;53.132;6.370;2024-03-06T07:00:26;32.17;;;18.92;;
51943;SDS011;37969;53.132;6.370;2024-03-06T07:02:55;27.77;;;17.87;;
51943;SDS011;37969;53.132;6.370;2024-03-06T07:05:24;29.05;;;18.13;;
51943;SDS011;37969;53.132;6.370;2024-03-06T07:07:50;27.63;;;18.23;;
51943;SDS011;37969;53.132;6.370;2024-03-06T07:10:18;31.35;;;18.05;;
51943;SDS011;37969;53.132;6.370;2024-03-06T07:12:44;28.85;;;17.38;;
51943;SDS011;37969;53.132;6.370;2024-03-06T07:15:19;29.23;;;17.30;;
51943;SDS011;37969;53.132;6.370;2024-03-06T07:17:47;26.85;;;18.77;;
51943;SDS011;37969;53.132;6.370;2024-03-06T07:20:15;33.30;;;18.40;;
51943;SDS011;37969;53.132;6.370;2024-03-06T07:22:42;33.45;;;18.90;;
51943;SDS011;37969;53.132;6.370;2024-03-06T07:25:09;29.88;;;18.80;;
51943;SDS011;37969;53.132;6.370;2024-03-06T07:27:36;31.80;;;18.98;;
51943;SDS011;37969;53.132;6.370;2024-03-06T07:30:04;31.75;;;18.88;;
51943;SDS011;37969;53.132;6.370;2024-03-06T07:32:32;29.38;;;18.90;;
51943;SDS011;37969;53.132;6.370;2024-03-06T07:35:01;25.55;;;17.13;;
51943;SDS011;37969;53.132;6.370;2024-03-06T07:37:28;30.70;;;17.98;;
51943;SDS011;37969;53.132;6.370;2024-03-06T07:39:56;26.95;;;17.25;;
51943;SDS011;37969;53.132;6.370;2024-03-06T07:42:23;34.25;;;18.75;;
51943;SDS011;37969;53.132;6.370;2024-03-06T07:44:53;29.15;;;18.13;;
51943;SDS011;37969;53.132;6.370;2024-03-06T07:47:19;37.15;;;18.83;;
51943;SDS011;37969;53.132;6.370;2024-03-06T07:49:47;32.33;;;18.02;;
51943;SDS011;37969;53.132;6.370;2024-03-06T07:52:15;42.70;;;19.75;;
51943;SDS011;37969;53.132;6.370;2024-03-06T07:54:43;33.70;;;18.45;;
51943;SDS011;37969;53.132;6.370;2024-03-06T07:57:09;32.65;;;18.73;;
51943;SDS011;37969;53.132;6.370;2024-03-06T07:59:37;34.20;;;20.20;;
51943;SDS011;37969;53.132;6.370;2024-03-06T08:02:05;32.83;;;18.60;;
51943;SDS011;37969;53.132;6.370;2024-03-06T08:04:35;31.60;;;18.42;;
51943;SDS011;37969;53.132;6.370;2024-03-06T08:07:04;36.75;;;18.92;;
51943;SDS011;37969;53.132;6.370;2024-03-06T08:09:33;36.63;;;20.00;;
51943;SDS011;37969;53.132;6.370;2024-03-06T08:12:01;36.90;;;20.50;;
51943;SDS011;37969;53.132;6.370;2024-03-06T08:14:29;35.90;;;18.55;;
51943;SDS011;37969;53.132;6.370;2024-03-06T08:16:58;30.83;;;18.98;;
51943;SDS011;37969;53.132;6.370;2024-03-06T08:19:30;29.38;;;18.27;;
51943;SDS011;37969;53.132;6.370;2024-03-06T08:21:56;38.17;;;19.40;;
51943;SDS011;37969;53.132;6.370;2024-03-06T08:24:26;33.10;;;19.65;;
51943;SDS011;37969;53.132;6.370;2024-03-06T08:26:52;30.38;;;19.40;;
51943;SDS011;37969;53.132;6.370;2024-03-06T08:29:20;32.17;;;18.50;;
51943;SDS011;37969;53.132;6.370;2024-03-06T08:31:48;31.98;;;19.08;;
51943;SDS011;37969;53.132;6.370;2024-03-06T08:34:15;32.78;;;19.35;;
51943;SDS011;37969;53.132;6.370;2024-03-06T08:36:43;30.70;;;18.95;;
51943;SDS011;37969;53.132;6.370;2024-03-06T08:39:13;31.30;;;18.98;;
51943;SDS011;37969;53.132;6.370;2024-03-06T08:41:40;31.95;;;18.40;;
51943;SDS011;37969;53.132;6.370;2024-03-06T08:44:11;33.13;;;19.35;;
51943;SDS011;37969;53.132;6.370;2024-03-06T08:46:39;31.67;;;18.35;;
51943;SDS011;37969;53.132;6.370;2024-03-06T08:49:11;36.17;;;18.63;;
51943;SDS011;37969;53.132;6.370;2024-03-06T08:51:40;30.27;;;19.60;;
51943;SDS011;37969;53.132;6.370;2024-03-06T08:54:10;32.80;;;19.92;;
51943;SDS011;37969;53.132;6.370;2024-03-06T08:56:39;33.87;;;19.50;;
51943;SDS011;37969;53.132;6.370;2024-03-06T08:59:07;37.88;;;19.73;;
51943;SDS011;37969;53.132;6.370;2024-03-06T09:01:33;32.67;;;19.00;;
51943;SDS011;37969;53.132;6.370;2024-03-06T09:04:03;31.10;;;19.25;;
51943;SDS011;37969;53.132;6.370;2024-03-06T09:06:32;31.40;;;18.25;;
51943;SDS011;37969;53.132;6.370;2024-03-06T09:09:01;27.90;;;18.37;;
51943;SDS011;37969;53.132;6.370;2024-03-06T09:11:27;33.35;;;19.15;;
51943;SDS011;37969;53.132;6.370;2024-03-06T09:13:59;38.85;;;19.00;;
51943;SDS011;37969;53.132;6.370;2024-03-06T09:16:25;30.75;;;18.50;;
51943;SDS011;37969;53.132;6.370;2024-03-06T09:18:52;25.38;;;17.90;;
51943;SDS011;37969;53.132;6.370;2024-03-06T09:21:20;27.10;;;17.95;;
51943;SDS011;37969;53.132;6.370;2024-03-06T09:23:47;29.70;;;18.40;;
51943;SDS011;37969;53.132;6.370;2024-03-06T09:26:18;30.45;;;18.67;;
51943;SDS011;37969;53.132;6.370;2024-03-06T09:28:45;29.08;;;18.83;;
51943;SDS011;37969;53.132;6.370;2024-03-06T09:31:15;25.30;;;17.95;;
51943;SDS011;37969;53.132;6.370;2024-03-06T09:33:41;28.58;;;18.10;;
51943;SDS011;37969;53.132;6.370;2024-03-06T09:36:10;29.13;;;19.00;;
51943;SDS011;37969;53.132;6.370;2024-03-06T09:38:41;28.73;;;18.70;;
51943;SDS011;37969;53.132;6.370;2024-03-06T09:41:09;29.08;;;18.25;;
51943;SDS011;37969;53.132;6.370;2024-03-06T09:43:36;25.80;;;18.27;;
51943;SDS011;37969;53.132;6.370;2024-03-06T09:46:06;29.25;;;18.77;;
51943;SDS011;37969;53.132;6.370;2024-03-06T09:48:33;27.60;;;17.98;;
51943;SDS011;37969;53.132;6.370;2024-03-06T09:51:01;30.92;;;19.02;;
51943;SDS011;37969;53.132;6.370;2024-03-06T09:53:28;29.75;;;18.27;;
51943;SDS011;37969;53.132;6.370;2024-03-06T09:55:59;29.75;;;17.77;;
51943;SDS011;37969;53.132;6.370;2024-03-06T09:58:30;26.45;;;18.38;;
51943;SDS011;37969;53.132;6.370;2024-03-06T10:00:58;30.35;;;18.95;;
51943;SDS011;37969;53.132;6.370;2024-03-06T10:03:29;27.90;;;18.13;;
51943;SDS011;37969;53.132;6.370;2024-03-06T10:06:00;26.77;;;18.33;;
51943;SDS011;37969;53.132;6.370;2024-03-06T10:08:30;31.98;;;19.17;;
51943;SDS011;37969;53.132;6.370;2024-03-06T10:10:57;29.42;;;18.85;;
51943;SDS011;37969;53.132;6.370;2024-03-06T10:13:24;32.55;;;19.95;;
51943;SDS011;37969;53.132;6.370;2024-03-06T10:16:01;34.25;;;19.95;;
51943;SDS011;37969;53.132;6.370;2024-03-06T10:18:27;31.73;;;19.60;;
51943;SDS011;37969;53.132;6.370;2024-03-06T10:20:58;33.35;;;19.85;;
51943;SDS011;37969;53.132;6.370;2024-03-06T10:23:25;28.38;;;18.77;;
51943;SDS011;37969;53.132;6.370;2024-03-06T10:25:59;29.38;;;19.13;;
51943;SDS011;37969;53.132;6.370;2024-03-06T10:31:02;28.10;;;18.08;;
51943;SDS011;37969;53.132;6.370;2024-03-06T10:33:33;32.17;;;20.17;;
51943;SDS011;37969;53.132;6.370;2024-03-06T10:36:04;30.58;;;20.10;;
51943;SDS011;37969;53.132;6.370;2024-03-06T10:38:35;29.92;;;18.70;;
51943;SDS011;37969;53.132;6.370;2024-03-06T10:41:02;30.23;;;19.20;;
51943;SDS011;37969;53.132;6.370;2024-03-06T10:43:29;32.15;;;18.88;;
51943;SDS011;37969;53.132;6.370;2024-03-06T10:46:00;34.85;;;19.95;;
51943;SDS011;37969;53.132;6.370;2024-03-06T10:48:29;34.33;;;21.05;;
51943;SDS011;37969;53.132;6.370;2024-03-06T10:50:57;33.88;;;19.58;;
51943;SDS011;37969;53.132;6.370;2024-03-06T10:53:25;31.92;;;19.55;;
51943;SDS011;37969;53.132;6.370;2024-03-06T10:55:51;34.08;;;19.20;;
51943;SDS011;37969;53.132;6.370;2024-03-06T10:58:20;36.67;;;21.10;;
51943;SDS011;37969;53.132;6.370;2024-03-06T11:00:51;42.15;;;21.65;;
51943;SDS011;37969;53.132;6.370;2024-03-06T11:03:23;36.15;;;20.52;;
51943;SDS011;37969;53.132;6.370;2024-03-06T11:05:52;36.60;;;21.17;;
51943;SDS011;37969;53.132;6.370;2024-03-06T11:08:19;35.65;;;20.58;;
51943;SDS011;37969;53.132;6.370;2024-03-06T11:10:45;32.72;;;21.00;;
51943;SDS011;37969;53.132;6.370;2024-03-06T11:13:21;31.73;;;19.95;;
51943;SDS011;37969;53.132;6.370;2024-03-06T11:15:51;38.13;;;20.48;;
51943;SDS011;37969;53.132;6.370;2024-03-06T11:23:30;40.20;;;21.83;;
51943;SDS011;37969;53.132;6.370;2024-03-06T11:26:03;41.60;;;21.92;;
51943;SDS011;37969;53.132;6.370;2024-03-06T11:28:31;42.70;;;22.58;;
51943;SDS011;37969;53.132;6.370;2024-03-06T11:31:01;41.00;;;22.15;;
51943;SDS011;37969;53.132;6.370;2024-03-06T11:36:14;30.58;;;20.58;;
51943;SDS011;37969;53.132;6.370;2024-03-06T11:41:21;35.28;;;22.15;;
51943;SDS011;37969;53.132;6.370;2024-03-06T11:43:52;39.88;;;22.52;;
51943;SDS011;37969;53.132;6.370;2024-03-06T11:46:22;35.10;;;22.85;;
51943;SDS011;37969;53.132;6.370;2024-03-06T11:48:52;39.42;;;21.98;;
51943;SDS011;37969;53.132;6.370;2024-03-06T11:51:23;34.13;;;20.75;;
51943;SDS011;37969;53.132;6.370;2024-03-06T11:53:51;37.38;;;22.05;;
51943;SDS011;37969;53.132;6.370;2024-03-06T11:56:19;35.58;;;22.63;;
51943;SDS011;37969;53.132;6.370;2024-03-06T11:58:49;36.65;;;22.35;;
51943;SDS011;37969;53.132;6.370;2024-03-06T12:01:18;34.95;;;21.98;;
51943;SDS011;37969;53.132;6.370;2024-03-06T12:03:49;34.35;;;20.80;;
51943;SDS011;37969;53.132;6.370;2024-03-06T12:06:16;38.60;;;22.67;;
51943;SDS011;37969;53.132;6.370;2024-03-06T12:08:47;38.63;;;22.73;;
51943;SDS011;37969;53.132;6.370;2024-03-06T12:11:15;35.95;;;21.85;;
51943;SDS011;37969;53.132;6.370;2024-03-06T12:13:47;37.97;;;23.08;;
51943;SDS011;37969;53.132;6.370;2024-03-06T12:16:15;43.60;;;23.70;;
51943;SDS011;37969;53.132;6.370;2024-03-06T12:18:43;36.97;;;23.17;;
51943;SDS011;37969;53.132;6.370;2024-03-06T12:21:10;40.15;;;22.95;;
51943;SDS011;37969;53.132;6.370;2024-03-06T12:23:39;35.42;;;22.95;;
51943;SDS011;37969;53.132;6.370;2024-03-06T12:26:10;41.05;;;23.75;;
51943;SDS011;37969;53.132;6.370;2024-03-06T12:28:41;43.35;;;24.58;;
51943;SDS011;37969;53.132;6.370;2024-03-06T12:31:08;39.03;;;24.48;;
51943;SDS011;37969;53.132;6.370;2024-03-06T12:33:35;37.92;;;24.40;;
51943;SDS011;37969;53.132;6.370;2024-03-06T12:36:07;36.03;;;22.98;;
51943;SDS011;37969;53.132;6.370;2024-03-06T12:38:40;38.90;;;23.73;;
51943;SDS011;37969;53.132;6.370;2024-03-06T12:41:07;38.83;;;23.40;;
51943;SDS011;37969;53.132;6.370;2024-03-06T12:43:36;34.47;;;23.25;;
51943;SDS011;37969;53.132;6.370;2024-03-06T12:46:09;35.92;;;22.30;;
51943;SDS011;37969;53.132;6.370;2024-03-06T12:48:39;37.13;;;22.80;;
51943;SDS011;37969;53.132;6.370;2024-03-06T12:51:08;38.28;;;23.10;;
51943;SDS011;37969;53.132;6.370;2024-03-06T12:53:35;34.97;;;22.90;;
51943;SDS011;37969;53.132;6.370;2024-03-06T12:56:03;34.38;;;22.50;;
51943;SDS011;37969;53.132;6.370;2024-03-06T12:58:32;35.88;;;23.70;;
51943;SDS011;37969;53.132;6.370;2024-03-06T13:01:02;36.83;;;22.90;;
51943;SDS011;37969;53.132;6.370;2024-03-06T13:03:33;38.00;;;23.05;;
51943;SDS011;37969;53.132;6.370;2024-03-06T13:05:59;38.00;;;23.92;;
51943;SDS011;37969;53.132;6.370;2024-03-06T13:08:31;37.53;;;23.63;;
51943;SDS011;37969;53.132;6.370;2024-03-06T13:10:57;37.75;;;24.77;;
51943;SDS011;37969;53.132;6.370;2024-03-06T13:13:27;42.15;;;24.13;;
51943;SDS011;37969;53.132;6.370;2024-03-06T13:15:55;40.47;;;24.05;;
51943;SDS011;37969;53.132;6.370;2024-03-06T13:18:23;35.97;;;22.50;;
51943;SDS011;37969;53.132;6.370;2024-03-06T13:20:51;38.80;;;23.83;;
51943;SDS011;37969;53.132;6.370;2024-03-06T13:23:23;40.38;;;23.50;;
51943;SDS011;37969;53.132;6.370;2024-03-06T13:25:56;39.35;;;23.90;;
51943;SDS011;37969;53.132;6.370;2024-03-06T13:28:24;43.00;;;24.55;;
51943;SDS011;37969;53.132;6.370;2024-03-06T13:30:50;38.92;;;24.17;;
51943;SDS011;37969;53.132;6.370;2024-03-06T13:33:18;36.80;;;23.10;;
51943;SDS011;37969;53.132;6.370;2024-03-06T13:35:51;39.47;;;25.05;;
51943;SDS011;37969;53.132;6.370;2024-03-06T13:38:20;33.75;;;23.42;;
51943;SDS011;37969;53.132;6.370;2024-03-06T13:40:50;41.85;;;24.70;;
51943;SDS011;37969;53.132;6.370;2024-03-06T13:43:16;39.08;;;26.17;;
51943;SDS011;37969;53.132;6.370;2024-03-06T13:45:48;36.40;;;24.48;;
51943;SDS011;37969;53.132;6.370;2024-03-06T13:48:16;39.22;;;25.38;;
51943;SDS011;37969;53.132;6.370;2024-03-06T13:50:44;37.92;;;23.88;;
51943;SDS011;37969;53.132;6.370;2024-03-06T13:53:13;41.67;;;26.50;;
51943;SDS011;37969;53.132;6.370;2024-03-06T13:55:45;45.75;;;26.27;;
51943;SDS011;37969;53.132;6.370;2024-03-06T13:58:13;39.40;;;26.50;;
51943;SDS011;37969;53.132;6.370;2024-03-06T14:00:44;42.00;;;26.48;;
51943;SDS011;37969;53.132;6.370;2024-03-06T14:03:12;39.47;;;25.98;;
51943;SDS011;37969;53.132;6.370;2024-03-06T14:08:08;44.50;;;26.70;;
51943;SDS011;37969;53.132;6.370;2024-03-06T14:10:42;37.33;;;27.10;;
51943;SDS011;37969;53.132;6.370;2024-03-06T14:13:11;46.40;;;26.58;;
51943;SDS011;37969;53.132;6.370;2024-03-06T14:15:38;41.53;;;25.73;;
51943;SDS011;37969;53.132;6.370;2024-03-06T14:18:09;38.20;;;26.92;;
51943;SDS011;37969;53.132;6.370;2024-03-06T14:20:36;41.28;;;26.77;;
51943;SDS011;37969;53.132;6.370;2024-03-06T14:23:04;39.05;;;26.17;;
51943;SDS011;37969;53.132;6.370;2024-03-06T14:25:30;43.05;;;27.40;;
51943;SDS011;37969;53.132;6.370;2024-03-06T14:28:03;41.05;;;27.40;;
51943;SDS011;37969;53.132;6.370;2024-03-06T14:30:35;44.22;;;26.88;;
51943;SDS011;37969;53.132;6.370;2024-03-06T14:33:03;40.25;;;26.05;;
51943;SDS011;37969;53.132;6.370;2024-03-06T14:35:32;37.90;;;25.27;;
51943;SDS011;37969;53.132;6.370;2024-03-06T14:38:01;39.78;;;27.25;;
51943;SDS011;37969;53.132;6.370;2024-03-06T14:40:29;40.15;;;26.90;;
51943;SDS011;37969;53.132;6.370;2024-03-06T14:42:56;40.40;;;26.13;;
51943;SDS011;37969;53.132;6.370;2024-03-06T14:45:22;41.03;;;27.13;;
51943;SDS011;37969;53.132;6.370;2024-03-06T14:47:48;41.50;;;27.48;;
51943;SDS011;37969;53.132;6.370;2024-03-06T14:50:18;42.42;;;27.98;;
51943;SDS011;37969;53.132;6.370;2024-03-06T14:52:47;42.90;;;27.23;;
51943;SDS011;37969;53.132;6.370;2024-03-06T14:55:15;37.15;;;27.38;;